sensor_id;sensor_type;location;lat;lon;timestamp;P1;durP1;ratioP1;P2;durP2;ratioP2
65581;SDS011;52231;40.090;18.348;2022-08-19T00:02:23;15.30;;;6.85;;
65581;SDS011;52231;40.090;18.348;2022-08-19T00:04:51;15.02;;;6.32;;
65581;SDS011;52231;40.090;18.348;2022-08-19T00:07:41;16.52;;;6.60;;
65581;SDS011;52231;40.090;18.348;2022-08-19T00:10:12;16.27;;;6.13;;
65581;SDS011;52231;40.090;18.348;2022-08-19T00:12:42;14.93;;;5.70;;
65581;SDS011;52231;40.090;18.348;2022-08-19T00:15:15;17.13;;;7.30;;
65581;SDS011;52231;40.090;18.348;2022-08-19T00:17:46;17.30;;;6.60;;
65581;SDS011;52231;40.090;18.348;2022-08-19T00:20:16;15.35;;;6.22;;
65581;SDS011;52231;40.090;18.348;2022-08-19T00:22:46;17.75;;;6.78;;
65581;SDS011;52231;40.090;18.348;2022-08-19T00:25:15;15.32;;;6.85;;
65581;SDS011;52231;40.090;18.348;2022-08-19T00:27:46;18.58;;;6.50;;
65581;SDS011;52231;40.090;18.348;2022-08-19T00:30:15;16.52;;;6.20;;
65581;SDS011;52231;40.090;18.348;2022-08-19T00:32:43;15.38;;;6.85;;
65581;SDS011;52231;40.090;18.348;2022-08-19T00:35:11;15.02;;;6.00;;
65581;SDS011;52231;40.090;18.348;2022-08-19T00:37:40;14.23;;;6.32;;
65581;SDS011;52231;40.090;18.348;2022-08-19T00:40:11;14.18;;;5.82;;
65581;SDS011;52231;40.090;18.348;2022-08-19T00:42:42;13.50;;;6.20;;
65581;SDS011;52231;40.090;18.348;2022-08-19T00:45:16;14.90;;;6.32;;
65581;SDS011;52231;40.090;18.348;2022-08-19T00:47:47;19.25;;;6.97;;
65581;SDS011;52231;40.090;18.348;2022-08-19T00:50:16;16.98;;;7.18;;
65581;SDS011;52231;40.090;18.348;2022-08-19T00:52:49;17.60;;;7.30;;
65581;SDS011;52231;40.090;18.348;2022-08-19T00:55:20;17.63;;;6.80;;
65581;SDS011;52231;40.090;18.348;2022-08-19T00:57:53;17.63;;;7.68;;
65581;SDS011;52231;40.090;18.348;2022-08-19T01:00:24;17.50;;;6.75;;
65581;SDS011;52231;40.090;18.348;2022-08-19T01:02:55;19.17;;;6.85;;
65581;SDS011;52231;40.090;18.348;2022-08-19T01:05:25;15.48;;;6.65;;
65581;SDS011;52231;40.090;18.348;2022-08-19T01:07:56;19.40;;;7.20;;
65581;SDS011;52231;40.090;18.348;2022-08-19T01:10:27;14.07;;;6.72;;
65581;SDS011;52231;40.090;18.348;2022-08-19T01:13:01;22.77;;;7.47;;
65581;SDS011;52231;40.090;18.348;2022-08-19T01:15:34;19.25;;;7.32;;
65581;SDS011;52231;40.090;18.348;2022-08-19T01:18:08;16.05;;;6.60;;
65581;SDS011;52231;40.090;18.348;2022-08-19T01:20:39;18.90;;;6.97;;
65581;SDS011;52231;40.090;18.348;2022-08-19T01:23:09;17.50;;;6.75;;
65581;SDS011;52231;40.090;18.348;2022-08-19T01:25:45;15.30;;;6.00;;
65581;SDS011;52231;40.090;18.348;2022-08-19T01:28:20;17.00;;;6.53;;
65581;SDS011;52231;40.090;18.348;2022-08-19T01:30:51;17.95;;;6.53;;
65581;SDS011;52231;40.090;18.348;2022-08-19T01:33:40;14.52;;;6.32;;
65581;SDS011;52231;40.090;18.348;2022-08-19T01:36:13;14.73;;;5.88;;
65581;SDS011;52231;40.090;18.348;2022-08-19T01:38:43;14.80;;;5.88;;
65581;SDS011;52231;40.090;18.348;2022-08-19T01:41:13;14.40;;;6.30;;
65581;SDS011;52231;40.090;18.348;2022-08-19T01:43:42;12.75;;;6.38;;
65581;SDS011;52231;40.090;18.348;2022-08-19T01:46:10;15.18;;;6.72;;
65581;SDS011;52231;40.090;18.348;2022-08-19T01:48:40;12.60;;;5.88;;
65581;SDS011;52231;40.090;18.348;2022-08-19T01:51:10;16.08;;;6.13;;
65581;SDS011;52231;40.090;18.348;2022-08-19T01:53:39;15.40;;;8.07;;
65581;SDS011;52231;40.090;18.348;2022-08-19T01:56:08;18.13;;;6.03;;
65581;SDS011;52231;40.090;18.348;2022-08-19T01:58:40;17.10;;;5.97;;
65581;SDS011;52231;40.090;18.348;2022-08-19T02:01:13;14.18;;;5.60;;
65581;SDS011;52231;40.090;18.348;2022-08-19T02:03:41;17.25;;;6.85;;
65581;SDS011;52231;40.090;18.348;2022-08-19T02:06:10;15.85;;;6.90;;
65581;SDS011;52231;40.090;18.348;2022-08-19T02:08:38;17.92;;;6.20;;
65581;SDS011;52231;40.090;18.348;2022-08-19T02:11:07;15.43;;;6.00;;
65581;SDS011;52231;40.090;18.348;2022-08-19T02:16:05;16.45;;;6.35;;
65581;SDS011;52231;40.090;18.348;2022-08-19T02:18:33;17.55;;;6.63;;
65581;SDS011;52231;40.090;18.348;2022-08-19T02:21:01;15.13;;;6.20;;
65581;SDS011;52231;40.090;18.348;2022-08-19T02:23:30;14.25;;;7.50;;
65581;SDS011;52231;40.090;18.348;2022-08-19T02:25:59;16.35;;;6.43;;
65581;SDS011;52231;40.090;18.348;2022-08-19T02:28:27;14.40;;;6.15;;
65581;SDS011;52231;40.090;18.348;2022-08-19T02:30:57;15.13;;;6.40;;
65581;SDS011;52231;40.090;18.348;2022-08-19T02:33:31;14.63;;;6.25;;
65581;SDS011;52231;40.090;18.348;2022-08-19T02:36:05;14.90;;;6.13;;
65581;SDS011;52231;40.090;18.348;2022-08-19T02:38:50;16.40;;;6.10;;
65581;SDS011;52231;40.090;18.348;2022-08-19T02:41:20;13.88;;;6.43;;
65581;SDS011;52231;40.090;18.348;2022-08-19T02:43:50;14.68;;;7.13;;
65581;SDS011;52231;40.090;18.348;2022-08-19T02:46:20;16.90;;;7.65;;
65581;SDS011;52231;40.090;18.348;2022-08-19T02:48:51;17.65;;;6.85;;
65581;SDS011;52231;40.090;18.348;2022-08-19T02:51:24;16.63;;;6.78;;
65581;SDS011;52231;40.090;18.348;2022-08-19T02:53:55;18.58;;;7.50;;
65581;SDS011;52231;40.090;18.348;2022-08-19T02:56:24;16.90;;;7.40;;
65581;SDS011;52231;40.090;18.348;2022-08-19T02:58:54;17.65;;;7.82;;
65581;SDS011;52231;40.090;18.348;2022-08-19T03:01:28;15.57;;;7.15;;
65581;SDS011;52231;40.090;18.348;2022-08-19T03:04:01;18.80;;;8.90;;
65581;SDS011;52231;40.090;18.348;2022-08-19T03:06:30;19.77;;;7.30;;
65581;SDS011;52231;40.090;18.348;2022-08-19T03:09:00;21.45;;;7.95;;
65581;SDS011;52231;40.090;18.348;2022-08-19T03:11:29;19.65;;;7.35;;
65581;SDS011;52231;40.090;18.348;2022-08-19T03:14:17;19.50;;;7.93;;
65581;SDS011;52231;40.090;18.348;2022-08-19T03:16:48;16.60;;;7.47;;
65581;SDS011;52231;40.090;18.348;2022-08-19T03:19:37;17.42;;;8.20;;
65581;SDS011;52231;40.090;18.348;2022-08-19T03:22:05;17.83;;;7.57;;
65581;SDS011;52231;40.090;18.348;2022-08-19T03:24:39;18.23;;;7.88;;
65581;SDS011;52231;40.090;18.348;2022-08-19T03:27:08;17.60;;;7.78;;
65581;SDS011;52231;40.090;18.348;2022-08-19T03:29:37;16.80;;;6.30;;
65581;SDS011;52231;40.090;18.348;2022-08-19T03:32:06;17.05;;;6.43;;
65581;SDS011;52231;40.090;18.348;2022-08-19T03:34:36;17.70;;;6.72;;
65581;SDS011;52231;40.090;18.348;2022-08-19T03:37:07;18.83;;;5.80;;
65581;SDS011;52231;40.090;18.348;2022-08-19T03:42:08;16.50;;;5.13;;
65581;SDS011;52231;40.090;18.348;2022-08-19T03:44:37;14.88;;;4.97;;
65581;SDS011;52231;40.090;18.348;2022-08-19T03:47:05;13.20;;;5.13;;
65581;SDS011;52231;40.090;18.348;2022-08-19T03:49:34;20.92;;;5.35;;
65581;SDS011;52231;40.090;18.348;2022-08-19T03:52:02;12.00;;;4.20;;
65581;SDS011;52231;40.090;18.348;2022-08-19T03:54:34;15.75;;;4.53;;
65581;SDS011;52231;40.090;18.348;2022-08-19T03:57:03;15.05;;;4.45;;
65581;SDS011;52231;40.090;18.348;2022-08-19T03:59:33;15.40;;;5.03;;
65581;SDS011;52231;40.090;18.348;2022-08-19T04:02:05;12.45;;;4.85;;
65581;SDS011;52231;40.090;18.348;2022-08-19T04:04:54;13.60;;;4.18;;
65581;SDS011;52231;40.090;18.348;2022-08-19T04:09:50;15.80;;;4.22;;
65581;SDS011;52231;40.090;18.348;2022-08-19T04:12:19;15.63;;;4.70;;
65581;SDS011;52231;40.090;18.348;2022-08-19T04:14:47;14.98;;;4.13;;
65581;SDS011;52231;40.090;18.348;2022-08-19T04:17:16;9.35;;;3.88;;
65581;SDS011;52231;40.090;18.348;2022-08-19T04:19:44;10.35;;;4.80;;
65581;SDS011;52231;40.090;18.348;2022-08-19T04:22:12;11.73;;;4.22;;
65581;SDS011;52231;40.090;18.348;2022-08-19T04:24:40;20.02;;;4.45;;
65581;SDS011;52231;40.090;18.348;2022-08-19T04:29:36;12.98;;;4.32;;
65581;SDS011;52231;40.090;18.348;2022-08-19T04:32:27;12.07;;;4.45;;
65581;SDS011;52231;40.090;18.348;2022-08-19T04:34:55;10.70;;;4.20;;
65581;SDS011;52231;40.090;18.348;2022-08-19T04:37:26;14.95;;;4.57;;
65581;SDS011;52231;40.090;18.348;2022-08-19T04:39:54;11.60;;;5.03;;
65581;SDS011;52231;40.090;18.348;2022-08-19T04:42:42;14.38;;;4.72;;
65581;SDS011;52231;40.090;18.348;2022-08-19T04:45:11;10.40;;;4.30;;
65581;SDS011;52231;40.090;18.348;2022-08-19T04:47:42;11.88;;;4.85;;
65581;SDS011;52231;40.090;18.348;2022-08-19T04:50:11;13.50;;;4.60;;
65581;SDS011;52231;40.090;18.348;2022-08-19T04:52:40;12.35;;;4.90;;
65581;SDS011;52231;40.090;18.348;2022-08-19T04:55:11;16.83;;;4.82;;
65581;SDS011;52231;40.090;18.348;2022-08-19T04:57:41;14.73;;;5.32;;
65581;SDS011;52231;40.090;18.348;2022-08-19T05:00:10;14.98;;;5.57;;
65581;SDS011;52231;40.090;18.348;2022-08-19T05:02:39;17.95;;;7.28;;
65581;SDS011;52231;40.090;18.348;2022-08-19T05:05:07;15.25;;;6.60;;
65581;SDS011;52231;40.090;18.348;2022-08-19T05:07:36;15.00;;;7.22;;
65581;SDS011;52231;40.090;18.348;2022-08-19T05:10:04;18.10;;;6.47;;
65581;SDS011;52231;40.090;18.348;2022-08-19T05:12:33;15.75;;;5.90;;
65581;SDS011;52231;40.090;18.348;2022-08-19T05:15:04;16.08;;;6.43;;
65581;SDS011;52231;40.090;18.348;2022-08-19T05:17:33;12.68;;;5.47;;
65581;SDS011;52231;40.090;18.348;2022-08-19T05:20:05;14.02;;;5.15;;
65581;SDS011;52231;40.090;18.348;2022-08-19T05:22:53;12.75;;;5.00;;
65581;SDS011;52231;40.090;18.348;2022-08-19T05:25:21;16.85;;;5.15;;
65581;SDS011;52231;40.090;18.348;2022-08-19T05:27:52;15.73;;;4.53;;
65581;SDS011;52231;40.090;18.348;2022-08-19T05:30:20;11.25;;;4.13;;
65581;SDS011;52231;40.090;18.348;2022-08-19T05:35:16;10.95;;;4.90;;
65581;SDS011;52231;40.090;18.348;2022-08-19T05:37:47;13.05;;;4.65;;
65581;SDS011;52231;40.090;18.348;2022-08-19T05:40:15;15.90;;;4.90;;
65581;SDS011;52231;40.090;18.348;2022-08-19T05:42:44;14.70;;;4.57;;
65581;SDS011;52231;40.090;18.348;2022-08-19T05:45:13;10.88;;;4.45;;
65581;SDS011;52231;40.090;18.348;2022-08-19T05:47:41;16.95;;;5.53;;
65581;SDS011;52231;40.090;18.348;2022-08-19T05:50:10;21.27;;;8.18;;
65581;SDS011;52231;40.090;18.348;2022-08-19T05:52:38;19.88;;;6.63;;
65581;SDS011;52231;40.090;18.348;2022-08-19T05:55:07;15.90;;;5.20;;
65581;SDS011;52231;40.090;18.348;2022-08-19T05:57:35;14.60;;;5.28;;
65581;SDS011;52231;40.090;18.348;2022-08-19T06:00:04;15.60;;;5.70;;
65581;SDS011;52231;40.090;18.348;2022-08-19T06:02:38;14.20;;;5.97;;
65581;SDS011;52231;40.090;18.348;2022-08-19T06:05:08;16.25;;;5.35;;
65581;SDS011;52231;40.090;18.348;2022-08-19T06:07:37;13.30;;;4.85;;
65581;SDS011;52231;40.090;18.348;2022-08-19T06:10:09;12.98;;;4.00;;
65581;SDS011;52231;40.090;18.348;2022-08-19T06:12:40;14.60;;;5.53;;
65581;SDS011;52231;40.090;18.348;2022-08-19T06:15:10;16.20;;;4.93;;
65581;SDS011;52231;40.090;18.348;2022-08-19T06:17:40;13.20;;;4.07;;
65581;SDS011;52231;40.090;18.348;2022-08-19T06:20:12;16.15;;;3.88;;
65581;SDS011;52231;40.090;18.348;2022-08-19T06:22:44;14.38;;;4.22;;
65581;SDS011;52231;40.090;18.348;2022-08-19T06:25:14;15.32;;;3.90;;
65581;SDS011;52231;40.090;18.348;2022-08-19T06:27:43;17.15;;;4.60;;
65581;SDS011;52231;40.090;18.348;2022-08-19T06:30:19;12.82;;;3.70;;
65581;SDS011;52231;40.090;18.348;2022-08-19T06:32:48;15.77;;;4.45;;
65581;SDS011;52231;40.090;18.348;2022-08-19T06:35:16;13.40;;;4.25;;
65581;SDS011;52231;40.090;18.348;2022-08-19T06:37:44;20.38;;;4.82;;
65581;SDS011;52231;40.090;18.348;2022-08-19T06:40:12;11.95;;;4.15;;
65581;SDS011;52231;40.090;18.348;2022-08-19T06:42:41;15.40;;;4.10;;
65581;SDS011;52231;40.090;18.348;2022-08-19T06:45:09;18.92;;;4.07;;
65581;SDS011;52231;40.090;18.348;2022-08-19T06:47:38;17.45;;;4.65;;
65581;SDS011;52231;40.090;18.348;2022-08-19T06:50:06;13.30;;;4.25;;
65581;SDS011;52231;40.090;18.348;2022-08-19T06:52:35;15.00;;;3.45;;
65581;SDS011;52231;40.090;18.348;2022-08-19T06:55:03;19.38;;;4.15;;
65581;SDS011;52231;40.090;18.348;2022-08-19T06:57:33;18.13;;;3.88;;
65581;SDS011;52231;40.090;18.348;2022-08-19T07:00:04;12.63;;;3.28;;
65581;SDS011;52231;40.090;18.348;2022-08-19T07:02:39;12.48;;;3.58;;
65581;SDS011;52231;40.090;18.348;2022-08-19T07:05:09;16.73;;;3.33;;
65581;SDS011;52231;40.090;18.348;2022-08-19T07:07:37;15.82;;;4.05;;
65581;SDS011;52231;40.090;18.348;2022-08-19T07:10:06;15.73;;;3.60;;
65581;SDS011;52231;40.090;18.348;2022-08-19T07:12:34;12.52;;;3.70;;
65581;SDS011;52231;40.090;18.348;2022-08-19T07:15:04;13.10;;;3.30;;
65581;SDS011;52231;40.090;18.348;2022-08-19T07:17:33;13.05;;;3.50;;
65581;SDS011;52231;40.090;18.348;2022-08-19T07:20:05;17.90;;;3.00;;
65581;SDS011;52231;40.090;18.348;2022-08-19T07:22:34;12.95;;;3.28;;
65581;SDS011;52231;40.090;18.348;2022-08-19T07:25:05;20.77;;;3.60;;
65581;SDS011;52231;40.090;18.348;2022-08-19T07:27:53;18.45;;;3.40;;
65581;SDS011;52231;40.090;18.348;2022-08-19T07:30:21;15.15;;;3.15;;
65581;SDS011;52231;40.090;18.348;2022-08-19T07:33:10;14.65;;;3.10;;
65581;SDS011;52231;40.090;18.348;2022-08-19T07:35:38;17.90;;;3.97;;
65581;SDS011;52231;40.090;18.348;2022-08-19T07:38:06;16.73;;;3.33;;
65581;SDS011;52231;40.090;18.348;2022-08-19T07:40:34;15.93;;;3.42;;
65581;SDS011;52231;40.090;18.348;2022-08-19T07:43:02;20.95;;;3.45;;
65581;SDS011;52231;40.090;18.348;2022-08-19T07:45:31;22.17;;;3.90;;
65581;SDS011;52231;40.090;18.348;2022-08-19T07:47:59;18.13;;;3.50;;
65581;SDS011;52231;40.090;18.348;2022-08-19T07:50:28;20.77;;;3.67;;
65581;SDS011;52231;40.090;18.348;2022-08-19T07:52:58;16.08;;;3.35;;
65581;SDS011;52231;40.090;18.348;2022-08-19T07:55:26;18.15;;;3.42;;
65581;SDS011;52231;40.090;18.348;2022-08-19T07:57:54;18.33;;;3.45;;
65581;SDS011;52231;40.090;18.348;2022-08-19T08:00:22;19.58;;;3.63;;
65581;SDS011;52231;40.090;18.348;2022-08-19T08:02:51;17.38;;;3.72;;
65581;SDS011;52231;40.090;18.348;2022-08-19T08:05:20;16.65;;;2.80;;
65581;SDS011;52231;40.090;18.348;2022-08-19T08:08:09;14.02;;;3.10;;
65581;SDS011;52231;40.090;18.348;2022-08-19T08:11:09;14.85;;;3.40;;
65581;SDS011;52231;40.090;18.348;2022-08-19T08:13:38;17.35;;;3.33;;
65581;SDS011;52231;40.090;18.348;2022-08-19T08:16:08;22.17;;;3.50;;
65581;SDS011;52231;40.090;18.348;2022-08-19T08:18:37;14.52;;;3.38;;
65581;SDS011;52231;40.090;18.348;2022-08-19T08:21:08;17.05;;;3.40;;
65581;SDS011;52231;40.090;18.348;2022-08-19T08:23:37;17.45;;;3.33;;
65581;SDS011;52231;40.090;18.348;2022-08-19T08:26:05;15.38;;;3.15;;
65581;SDS011;52231;40.090;18.348;2022-08-19T08:28:33;14.35;;;3.20;;
65581;SDS011;52231;40.090;18.348;2022-08-19T08:31:01;20.17;;;3.10;;
65581;SDS011;52231;40.090;18.348;2022-08-19T08:33:29;15.52;;;3.25;;
65581;SDS011;52231;40.090;18.348;2022-08-19T08:35:57;23.15;;;3.45;;
65581;SDS011;52231;40.090;18.348;2022-08-19T08:38:25;22.00;;;3.50;;
65581;SDS011;52231;40.090;18.348;2022-08-19T08:40:56;17.20;;;3.28;;
65581;SDS011;52231;40.090;18.348;2022-08-19T08:43:35;14.70;;;3.28;;
65581;SDS011;52231;40.090;18.348;2022-08-19T08:46:11;17.05;;;2.95;;
65581;SDS011;52231;40.090;18.348;2022-08-19T08:48:54;15.15;;;3.70;;
65581;SDS011;52231;40.090;18.348;2022-08-19T08:51:35;14.55;;;2.83;;
65581;SDS011;52231;40.090;18.348;2022-08-19T08:54:15;15.73;;;3.13;;
65581;SDS011;52231;40.090;18.348;2022-08-19T08:56:48;22.67;;;3.40;;
65581;SDS011;52231;40.090;18.348;2022-08-19T08:59:20;13.70;;;2.72;;
65581;SDS011;52231;40.090;18.348;2022-08-19T09:01:52;16.48;;;3.33;;
65581;SDS011;52231;40.090;18.348;2022-08-19T09:04:20;16.90;;;2.80;;
65581;SDS011;52231;40.090;18.348;2022-08-19T09:09:55;14.63;;;3.90;;
65581;SDS011;52231;40.090;18.348;2022-08-19T09:12:38;17.65;;;3.20;;
65581;SDS011;52231;40.090;18.348;2022-08-19T09:15:32;16.95;;;2.55;;
65581;SDS011;52231;40.090;18.348;2022-08-19T09:18:06;15.32;;;2.80;;
65581;SDS011;52231;40.090;18.348;2022-08-19T09:20:36;18.27;;;2.85;;
65581;SDS011;52231;40.090;18.348;2022-08-19T09:23:05;11.43;;;2.90;;
65581;SDS011;52231;40.090;18.348;2022-08-19T09:25:33;18.95;;;3.13;;
65581;SDS011;52231;40.090;18.348;2022-08-19T09:28:01;17.98;;;3.20;;
65581;SDS011;52231;40.090;18.348;2022-08-19T09:30:32;20.98;;;3.67;;
65581;SDS011;52231;40.090;18.348;2022-08-19T09:33:06;20.83;;;3.38;;
65581;SDS011;52231;40.090;18.348;2022-08-19T09:35:35;23.17;;;4.03;;
65581;SDS011;52231;40.090;18.348;2022-08-19T09:38:03;22.00;;;3.60;;
65581;SDS011;52231;40.090;18.348;2022-08-19T09:40:31;15.75;;;3.22;;
65581;SDS011;52231;40.090;18.348;2022-08-19T09:43:02;22.27;;;3.90;;
65581;SDS011;52231;40.090;18.348;2022-08-19T09:45:32;18.92;;;3.92;;
65581;SDS011;52231;40.090;18.348;2022-08-19T09:48:01;15.00;;;3.67;;
65581;SDS011;52231;40.090;18.348;2022-08-19T09:50:30;15.00;;;4.00;;
65581;SDS011;52231;40.090;18.348;2022-08-19T09:53:03;18.90;;;4.00;;
65581;SDS011;52231;40.090;18.348;2022-08-19T09:55:33;18.58;;;3.50;;
65581;SDS011;52231;40.090;18.348;2022-08-19T09:58:01;14.35;;;3.70;;
65581;SDS011;52231;40.090;18.348;2022-08-19T10:00:30;17.33;;;3.35;;
65581;SDS011;52231;40.090;18.348;2022-08-19T10:02:58;14.93;;;3.58;;
65581;SDS011;52231;40.090;18.348;2022-08-19T10:05:27;19.50;;;3.75;;
65581;SDS011;52231;40.090;18.348;2022-08-19T10:08:18;15.85;;;3.90;;
65581;SDS011;52231;40.090;18.348;2022-08-19T10:10:50;14.38;;;3.60;;
65581;SDS011;52231;40.090;18.348;2022-08-19T10:13:20;17.55;;;3.55;;
65581;SDS011;52231;40.090;18.348;2022-08-19T10:15:52;13.43;;;3.47;;
65581;SDS011;52231;40.090;18.348;2022-08-19T10:18:23;17.60;;;3.85;;
65581;SDS011;52231;40.090;18.348;2022-08-19T10:21:01;15.73;;;4.28;;
65581;SDS011;52231;40.090;18.348;2022-08-19T10:23:42;15.10;;;3.53;;
65581;SDS011;52231;40.090;18.348;2022-08-19T10:26:13;18.92;;;4.07;;
65581;SDS011;52231;40.090;18.348;2022-08-19T10:28:44;15.27;;;3.72;;
65581;SDS011;52231;40.090;18.348;2022-08-19T10:31:13;16.35;;;4.22;;
65581;SDS011;52231;40.090;18.348;2022-08-19T10:33:50;16.90;;;3.95;;
65581;SDS011;52231;40.090;18.348;2022-08-19T10:36:26;15.32;;;3.55;;
65581;SDS011;52231;40.090;18.348;2022-08-19T10:38:56;17.45;;;4.07;;
65581;SDS011;52231;40.090;18.348;2022-08-19T10:41:30;17.10;;;3.72;;
65581;SDS011;52231;40.090;18.348;2022-08-19T10:44:18;14.95;;;3.33;;
65581;SDS011;52231;40.090;18.348;2022-08-19T10:46:48;17.05;;;3.53;;
65581;SDS011;52231;40.090;18.348;2022-08-19T10:49:17;14.63;;;4.10;;
65581;SDS011;52231;40.090;18.348;2022-08-19T10:51:46;16.75;;;3.53;;
65581;SDS011;52231;40.090;18.348;2022-08-19T10:54:33;10.55;;;3.47;;
65581;SDS011;52231;40.090;18.348;2022-08-19T10:57:20;13.80;;;3.55;;
65581;SDS011;52231;40.090;18.348;2022-08-19T10:59:52;22.90;;;3.58;;
65581;SDS011;52231;40.090;18.348;2022-08-19T11:02:20;12.32;;;3.60;;
65581;SDS011;52231;40.090;18.348;2022-08-19T11:04:48;22.17;;;3.65;;
65581;SDS011;52231;40.090;18.348;2022-08-19T11:07:19;14.00;;;3.83;;
65581;SDS011;52231;40.090;18.348;2022-08-19T11:09:48;16.27;;;3.95;;
65581;SDS011;52231;40.090;18.348;2022-08-19T11:12:16;16.77;;;3.53;;
65581;SDS011;52231;40.090;18.348;2022-08-19T11:14:44;16.33;;;3.08;;
65581;SDS011;52231;40.090;18.348;2022-08-19T11:17:12;14.45;;;3.45;;
65581;SDS011;52231;40.090;18.348;2022-08-19T11:19:41;17.58;;;3.97;;
65581;SDS011;52231;40.090;18.348;2022-08-19T11:22:09;17.60;;;3.22;;
65581;SDS011;52231;40.090;18.348;2022-08-19T11:24:38;21.17;;;4.30;;
65581;SDS011;52231;40.090;18.348;2022-08-19T11:27:08;18.98;;;3.60;;
65581;SDS011;52231;40.090;18.348;2022-08-19T11:29:39;17.48;;;4.10;;
65581;SDS011;52231;40.090;18.348;2022-08-19T11:32:08;17.48;;;3.13;;
65581;SDS011;52231;40.090;18.348;2022-08-19T11:34:37;16.75;;;3.65;;
65581;SDS011;52231;40.090;18.348;2022-08-19T11:37:06;19.85;;;4.13;;
65581;SDS011;52231;40.090;18.348;2022-08-19T11:39:36;16.38;;;3.67;;
65581;SDS011;52231;40.090;18.348;2022-08-19T11:42:05;15.73;;;3.25;;
65581;SDS011;52231;40.090;18.348;2022-08-19T11:44:54;16.52;;;3.85;;
65581;SDS011;52231;40.090;18.348;2022-08-19T11:47:23;15.55;;;3.90;;
65581;SDS011;52231;40.090;18.348;2022-08-19T11:49:51;17.42;;;3.30;;
65581;SDS011;52231;40.090;18.348;2022-08-19T11:52:20;17.77;;;3.22;;
65581;SDS011;52231;40.090;18.348;2022-08-19T11:54:48;19.70;;;3.20;;
65581;SDS011;52231;40.090;18.348;2022-08-19T11:57:17;18.85;;;3.88;;
65581;SDS011;52231;40.090;18.348;2022-08-19T11:59:48;14.02;;;3.75;;
65581;SDS011;52231;40.090;18.348;2022-08-19T12:02:18;20.70;;;3.25;;
65581;SDS011;52231;40.090;18.348;2022-08-19T12:04:47;11.98;;;3.30;;
65581;SDS011;52231;40.090;18.348;2022-08-19T12:07:15;19.88;;;4.00;;
65581;SDS011;52231;40.090;18.348;2022-08-19T12:09:45;16.58;;;3.75;;
65581;SDS011;52231;40.090;18.348;2022-08-19T12:12:13;15.77;;;3.92;;
65581;SDS011;52231;40.090;18.348;2022-08-19T12:14:42;15.30;;;3.83;;
65581;SDS011;52231;40.090;18.348;2022-08-19T12:17:11;20.50;;;3.97;;
65581;SDS011;52231;40.090;18.348;2022-08-19T12:19:41;17.38;;;3.90;;
65581;SDS011;52231;40.090;18.348;2022-08-19T12:22:10;22.42;;;4.43;;
65581;SDS011;52231;40.090;18.348;2022-08-19T12:24:58;19.73;;;4.13;;
65581;SDS011;52231;40.090;18.348;2022-08-19T12:27:28;18.13;;;4.22;;
65581;SDS011;52231;40.090;18.348;2022-08-19T12:29:57;25.17;;;4.55;;
65581;SDS011;52231;40.090;18.348;2022-08-19T12:32:33;19.10;;;4.95;;
65581;SDS011;52231;40.090;18.348;2022-08-19T12:35:02;20.73;;;5.10;;
65581;SDS011;52231;40.090;18.348;2022-08-19T12:37:31;17.48;;;4.25;;
65581;SDS011;52231;40.090;18.348;2022-08-19T12:40:01;21.42;;;4.15;;
65581;SDS011;52231;40.090;18.348;2022-08-19T12:42:30;18.92;;;4.22;;
65581;SDS011;52231;40.090;18.348;2022-08-19T12:44:59;22.35;;;4.32;;
65581;SDS011;52231;40.090;18.348;2022-08-19T12:47:27;19.70;;;4.85;;
65581;SDS011;52231;40.090;18.348;2022-08-19T12:49:56;24.10;;;4.43;;
65581;SDS011;52231;40.090;18.348;2022-08-19T12:52:25;22.65;;;4.65;;
65581;SDS011;52231;40.090;18.348;2022-08-19T12:54:55;18.70;;;4.57;;
65581;SDS011;52231;40.090;18.348;2022-08-19T12:57:25;22.95;;;4.93;;
65581;SDS011;52231;40.090;18.348;2022-08-19T12:59:56;23.05;;;4.07;;
65581;SDS011;52231;40.090;18.348;2022-08-19T13:02:24;15.77;;;3.70;;
65581;SDS011;52231;40.090;18.348;2022-08-19T13:04:53;19.75;;;4.15;;
65581;SDS011;52231;40.090;18.348;2022-08-19T13:07:22;18.38;;;4.15;;
65581;SDS011;52231;40.090;18.348;2022-08-19T13:09:51;21.13;;;4.40;;
65581;SDS011;52231;40.090;18.348;2022-08-19T13:12:20;21.73;;;4.38;;
65581;SDS011;52231;40.090;18.348;2022-08-19T13:14:48;20.35;;;4.40;;
65581;SDS011;52231;40.090;18.348;2022-08-19T13:17:18;16.17;;;3.75;;
65581;SDS011;52231;40.090;18.348;2022-08-19T13:19:47;21.05;;;4.22;;
65581;SDS011;52231;40.090;18.348;2022-08-19T13:22:16;17.58;;;3.97;;
65581;SDS011;52231;40.090;18.348;2022-08-19T13:24:45;19.17;;;3.83;;
65581;SDS011;52231;40.090;18.348;2022-08-19T13:27:15;20.23;;;4.00;;
65581;SDS011;52231;40.090;18.348;2022-08-19T13:29:43;19.08;;;4.07;;
65581;SDS011;52231;40.090;18.348;2022-08-19T13:32:30;20.08;;;3.92;;
65581;SDS011;52231;40.090;18.348;2022-08-19T13:35:17;26.05;;;4.22;;
65581;SDS011;52231;40.090;18.348;2022-08-19T13:37:45;17.75;;;4.28;;
65581;SDS011;52231;40.090;18.348;2022-08-19T13:40:16;23.00;;;4.20;;
65581;SDS011;52231;40.090;18.348;2022-08-19T13:42:47;14.10;;;4.22;;
65581;SDS011;52231;40.090;18.348;2022-08-19T13:45:18;19.88;;;4.03;;
65581;SDS011;52231;40.090;18.348;2022-08-19T13:47:49;23.25;;;4.53;;
65581;SDS011;52231;40.090;18.348;2022-08-19T13:50:22;16.73;;;4.57;;
65581;SDS011;52231;40.090;18.348;2022-08-19T13:52:55;13.25;;;3.67;;
65581;SDS011;52231;40.090;18.348;2022-08-19T13:55:24;25.42;;;4.30;;
65581;SDS011;52231;40.090;18.348;2022-08-19T13:57:53;19.30;;;4.45;;
65581;SDS011;52231;40.090;18.348;2022-08-19T14:00:23;17.17;;;3.88;;
65581;SDS011;52231;40.090;18.348;2022-08-19T14:02:54;17.77;;;3.85;;
65581;SDS011;52231;40.090;18.348;2022-08-19T14:05:24;14.27;;;3.88;;
65581;SDS011;52231;40.090;18.348;2022-08-19T14:07:54;18.98;;;4.03;;
65581;SDS011;52231;40.090;18.348;2022-08-19T14:10:23;19.08;;;4.05;;
65581;SDS011;52231;40.090;18.348;2022-08-19T14:12:53;19.30;;;4.22;;
65581;SDS011;52231;40.090;18.348;2022-08-19T14:15:24;14.32;;;4.05;;
65581;SDS011;52231;40.090;18.348;2022-08-19T14:17:53;21.35;;;4.38;;
65581;SDS011;52231;40.090;18.348;2022-08-19T14:20:23;16.30;;;4.10;;
65581;SDS011;52231;40.090;18.348;2022-08-19T14:22:51;18.05;;;4.60;;
65581;SDS011;52231;40.090;18.348;2022-08-19T14:25:22;20.20;;;4.53;;
65581;SDS011;52231;40.090;18.348;2022-08-19T14:27:52;15.30;;;4.15;;
65581;SDS011;52231;40.090;18.348;2022-08-19T14:30:22;15.63;;;3.83;;
65581;SDS011;52231;40.090;18.348;2022-08-19T14:32:57;17.15;;;4.53;;
65581;SDS011;52231;40.090;18.348;2022-08-19T14:35:27;19.77;;;4.82;;
65581;SDS011;52231;40.090;18.348;2022-08-19T14:37:57;17.35;;;3.85;;
65581;SDS011;52231;40.090;18.348;2022-08-19T14:40:26;19.48;;;4.50;;
65581;SDS011;52231;40.090;18.348;2022-08-19T14:43:00;12.63;;;4.15;;
65581;SDS011;52231;40.090;18.348;2022-08-19T14:45:32;18.33;;;4.00;;
65581;SDS011;52231;40.090;18.348;2022-08-19T14:48:04;18.17;;;4.70;;
65581;SDS011;52231;40.090;18.348;2022-08-19T14:50:33;14.02;;;3.78;;
65581;SDS011;52231;40.090;18.348;2022-08-19T14:53:08;14.68;;;3.92;;
65581;SDS011;52231;40.090;18.348;2022-08-19T14:55:36;18.48;;;4.65;;
65581;SDS011;52231;40.090;18.348;2022-08-19T14:58:09;17.10;;;4.32;;
65581;SDS011;52231;40.090;18.348;2022-08-19T15:00:37;14.82;;;3.90;;